CheckWX is a tool to help pilots better visualize weather data.  It is not intended as a substitute for an official pre-flight weather briefing.

04:59:27 UTC

ZKPY TAF
Sunan International Airport
Pyongyang
TAF AMD ZKPY 222230Z 2300/2324 34005G10MPS 7000 BKN023 TEMPO 2300/2304 4000 -SN SCT013 SCT020 BECMG 2304/2306 CAVOK TX08/2307Z TNM04/2322Z BECMG 2311/2313 27005MPS

Mar-23@
00:00 UTC

Mar-23 @ 00:00 UTC

Mar-23@
04:00 UTC

Mar-23 @ 04:00 UTC

TAF AMD ZKPY 222230Z 2300/2324 34005G10MPS 7000 BKN023

Expired

Wind
  • 340° at 10 KTS
  • {Gusting to 19 KTS
Cloud Levels
  • Broken at 2,300' AGL

Mar-23@
00:00 UTC

Mar-23 @ 00:00 UTC

Mar-23@
04:00 UTC

Mar-23 @ 04:00 UTC

TEMPO 2300/2304 4000 -SN SCT013 SCT020

Expired

Conditions
Light Snow
Cloud Levels
  • Scattered at 1,300' AGL
  • Scattered at 2,000' AGL

Mar-23@
04:00 UTC

Mar-23 @ 04:00 UTC

Mar-23@
11:00 UTC

Mar-23 @ 11:00 UTC

BECMG 2304/2306 CAVOK TX08/2307Z TNM04/2322Z

Becoming

Becoming Conditions expected by Sat, Mar 23, 2019 @ 06:00 UTC

Wind
  • 340° at 10 KTS
  • {Gusting to 19 KTS
Cloud Levels
  • No significant clouds

Mar-23@
11:00 UTC

Mar-23 @ 11:00 UTC

Mar-24@
00:00 UTC

Mar-24 @ 00:00 UTC

BECMG 2311/2313 27005MPS

Becoming

Becoming Conditions expected by Sat, Mar 23, 2019 @ 13:00 UTC

Wind
  • 270° at 10 KTS
Cloud Levels
  • No significant clouds